sensor_id;sensor_type;location;lat;lon;timestamp;P1;durP1;ratioP1;P2;durP2;ratioP2
10063;SDS011;5071;52.360;13.134;2022-08-19T00:02:04;9.13;;;7.53;;
10063;SDS011;5071;52.360;13.134;2022-08-19T00:07:06;8.87;;;7.93;;
10063;SDS011;5071;52.360;13.134;2022-08-19T00:12:10;13.40;;;9.37;;
10063;SDS011;5071;52.360;13.134;2022-08-19T00:17:12;9.47;;;8.47;;
10063;SDS011;5071;52.360;13.134;2022-08-19T00:22:14;9.97;;;8.50;;
10063;SDS011;5071;52.360;13.134;2022-08-19T00:27:19;9.47;;;8.30;;
10063;SDS011;5071;52.360;13.134;2022-08-19T00:32:26;9.90;;;8.03;;
10063;SDS011;5071;52.360;13.134;2022-08-19T00:37:30;11.13;;;8.53;;
10063;SDS011;5071;52.360;13.134;2022-08-19T00:42:33;11.73;;;8.57;;
10063;SDS011;5071;52.360;13.134;2022-08-19T00:47:35;10.83;;;8.40;;
10063;SDS011;5071;52.360;13.134;2022-08-19T00:52:39;8.80;;;7.97;;
10063;SDS011;5071;52.360;13.134;2022-08-19T00:57:51;11.30;;;7.97;;
10063;SDS011;5071;52.360;13.134;2022-08-19T01:02:56;11.70;;;7.80;;
10063;SDS011;5071;52.360;13.134;2022-08-19T01:07:59;9.63;;;8.30;;
10063;SDS011;5071;52.360;13.134;2022-08-19T01:13:05;9.13;;;8.03;;
10063;SDS011;5071;52.360;13.134;2022-08-19T01:18:08;11.07;;;9.17;;
10063;SDS011;5071;52.360;13.134;2022-08-19T01:23:14;11.00;;;9.03;;
10063;SDS011;5071;52.360;13.134;2022-08-19T01:28:18;9.33;;;8.30;;
10063;SDS011;5071;52.360;13.134;2022-08-19T01:33:40;11.27;;;9.50;;
10063;SDS011;5071;52.360;13.134;2022-08-19T01:38:44;10.50;;;9.33;;
10063;SDS011;5071;52.360;13.134;2022-08-19T01:43:46;10.37;;;9.07;;
10063;SDS011;5071;52.360;13.134;2022-08-19T01:49:09;11.57;;;9.27;;
10063;SDS011;5071;52.360;13.134;2022-08-19T01:54:14;14.27;;;11.40;;
10063;SDS011;5071;52.360;13.134;2022-08-19T01:59:28;13.60;;;12.17;;
10063;SDS011;5071;52.360;13.134;2022-08-19T02:04:32;15.60;;;12.93;;
10063;SDS011;5071;52.360;13.134;2022-08-19T02:09:37;15.33;;;12.70;;
10063;SDS011;5071;52.360;13.134;2022-08-19T02:14:39;15.73;;;12.37;;
10063;SDS011;5071;52.360;13.134;2022-08-19T02:19:42;15.83;;;12.70;;
10063;SDS011;5071;52.360;13.134;2022-08-19T02:24:45;15.77;;;12.80;;
10063;SDS011;5071;52.360;13.134;2022-08-19T02:29:48;14.53;;;12.40;;
10063;SDS011;5071;52.360;13.134;2022-08-19T02:34:51;14.43;;;12.67;;
10063;SDS011;5071;52.360;13.134;2022-08-19T02:39:54;16.07;;;12.33;;
10063;SDS011;5071;52.360;13.134;2022-08-19T02:44:57;13.17;;;11.77;;
10063;SDS011;5071;52.360;13.134;2022-08-19T02:50:00;16.20;;;11.87;;
10063;SDS011;5071;52.360;13.134;2022-08-19T02:55:05;13.03;;;11.67;;
10063;SDS011;5071;52.360;13.134;2022-08-19T03:00:08;16.80;;;12.80;;
10063;SDS011;5071;52.360;13.134;2022-08-19T03:05:11;16.03;;;12.10;;
10063;SDS011;5071;52.360;13.134;2022-08-19T03:10:14;16.13;;;12.17;;
10063;SDS011;5071;52.360;13.134;2022-08-19T03:15:18;13.67;;;12.17;;
10063;SDS011;5071;52.360;13.134;2022-08-19T03:20:20;14.67;;;11.73;;
10063;SDS011;5071;52.360;13.134;2022-08-19T03:25:23;14.80;;;13.03;;
10063;SDS011;5071;52.360;13.134;2022-08-19T03:30:25;13.23;;;11.40;;
10063;SDS011;5071;52.360;13.134;2022-08-19T03:35:27;14.03;;;12.33;;
10063;SDS011;5071;52.360;13.134;2022-08-19T03:40:31;12.67;;;10.80;;
10063;SDS011;5071;52.360;13.134;2022-08-19T03:45:34;13.80;;;12.27;;
10063;SDS011;5071;52.360;13.134;2022-08-19T03:50:38;13.77;;;11.90;;
10063;SDS011;5071;52.360;13.134;2022-08-19T03:55:42;13.33;;;11.57;;
10063;SDS011;5071;52.360;13.134;2022-08-19T04:00:44;14.73;;;11.53;;
10063;SDS011;5071;52.360;13.134;2022-08-19T04:05:46;15.13;;;12.33;;
10063;SDS011;5071;52.360;13.134;2022-08-19T04:10:49;15.37;;;12.50;;
10063;SDS011;5071;52.360;13.134;2022-08-19T04:15:51;15.57;;;12.77;;
10063;SDS011;5071;52.360;13.134;2022-08-19T04:20:54;15.43;;;13.37;;
10063;SDS011;5071;52.360;13.134;2022-08-19T04:25:57;14.90;;;13.17;;
10063;SDS011;5071;52.360;13.134;2022-08-19T04:31:00;16.30;;;13.00;;
10063;SDS011;5071;52.360;13.134;2022-08-19T04:36:01;16.47;;;12.57;;
10063;SDS011;5071;52.360;13.134;2022-08-19T04:41:05;13.40;;;12.00;;
10063;SDS011;5071;52.360;13.134;2022-08-19T04:46:07;14.73;;;13.20;;
10063;SDS011;5071;52.360;13.134;2022-08-19T04:51:11;15.63;;;12.73;;
10063;SDS011;5071;52.360;13.134;2022-08-19T04:56:16;13.00;;;10.97;;
10063;SDS011;5071;52.360;13.134;2022-08-19T05:01:19;13.00;;;10.50;;
10063;SDS011;5071;52.360;13.134;2022-08-19T05:06:23;13.60;;;10.77;;
10063;SDS011;5071;52.360;13.134;2022-08-19T05:11:27;12.57;;;10.10;;
10063;SDS011;5071;52.360;13.134;2022-08-19T05:16:32;11.93;;;10.63;;
10063;SDS011;5071;52.360;13.134;2022-08-19T05:21:34;12.23;;;9.90;;
10063;SDS011;5071;52.360;13.134;2022-08-19T05:26:39;11.10;;;9.60;;
10063;SDS011;5071;52.360;13.134;2022-08-19T05:31:43;10.60;;;9.10;;
10063;SDS011;5071;52.360;13.134;2022-08-19T05:36:46;10.20;;;9.03;;
10063;SDS011;5071;52.360;13.134;2022-08-19T05:41:51;9.25;;;7.53;;
10063;SDS011;5071;52.360;13.134;2022-08-19T05:46:55;9.95;;;8.48;;
10063;SDS011;5071;52.360;13.134;2022-08-19T05:51:57;10.37;;;9.00;;
10063;SDS011;5071;52.360;13.134;2022-08-19T05:57:01;9.03;;;8.10;;
10063;SDS011;5071;52.360;13.134;2022-08-19T06:02:04;12.07;;;9.80;;
10063;SDS011;5071;52.360;13.134;2022-08-19T06:07:07;10.60;;;9.37;;
10063;SDS011;5071;52.360;13.134;2022-08-19T06:12:14;10.10;;;9.00;;
10063;SDS011;5071;52.360;13.134;2022-08-19T06:17:19;10.57;;;9.23;;
10063;SDS011;5071;52.360;13.134;2022-08-19T06:22:21;10.10;;;9.07;;
10063;SDS011;5071;52.360;13.134;2022-08-19T06:27:25;10.85;;;8.73;;
10063;SDS011;5071;52.360;13.134;2022-08-19T06:32:27;9.77;;;8.18;;
10063;SDS011;5071;52.360;13.134;2022-08-19T06:37:29;10.18;;;9.07;;
10063;SDS011;5071;52.360;13.134;2022-08-19T06:42:32;10.05;;;8.75;;
10063;SDS011;5071;52.360;13.134;2022-08-19T06:47:35;12.18;;;9.18;;
10063;SDS011;5071;52.360;13.134;2022-08-19T06:52:36;10.07;;;9.07;;
10063;SDS011;5071;52.360;13.134;2022-08-19T06:57:40;10.00;;;9.00;;
10063;SDS011;5071;52.360;13.134;2022-08-19T07:02:43;10.75;;;9.65;;
10063;SDS011;5071;52.360;13.134;2022-08-19T07:07:57;11.18;;;8.52;;
10063;SDS011;5071;52.360;13.134;2022-08-19T07:13:06;10.63;;;9.32;;
10063;SDS011;5071;52.360;13.134;2022-08-19T07:18:08;10.73;;;9.63;;
10063;SDS011;5071;52.360;13.134;2022-08-19T07:23:12;11.40;;;9.98;;
10063;SDS011;5071;52.360;13.134;2022-08-19T07:28:18;9.90;;;8.90;;
10063;SDS011;5071;52.360;13.134;2022-08-19T07:33:25;9.15;;;8.23;;
10063;SDS011;5071;52.360;13.134;2022-08-19T07:38:28;11.02;;;9.07;;
10063;SDS011;5071;52.360;13.134;2022-08-19T07:43:31;10.43;;;9.35;;
10063;SDS011;5071;52.360;13.134;2022-08-19T07:48:35;10.50;;;9.30;;
10063;SDS011;5071;52.360;13.134;2022-08-19T07:53:38;12.85;;;9.90;;
10063;SDS011;5071;52.360;13.134;2022-08-19T07:58:43;12.80;;;10.80;;
10063;SDS011;5071;52.360;13.134;2022-08-19T08:03:46;13.70;;;10.70;;
10063;SDS011;5071;52.360;13.134;2022-08-19T08:08:49;11.05;;;9.98;;
10063;SDS011;5071;52.360;13.134;2022-08-19T08:13:54;11.50;;;10.40;;
10063;SDS011;5071;52.360;13.134;2022-08-19T08:19:03;12.88;;;10.55;;
10063;SDS011;5071;52.360;13.134;2022-08-19T08:24:26;11.57;;;10.38;;
10063;SDS011;5071;52.360;13.134;2022-08-19T08:29:33;11.98;;;10.45;;
10063;SDS011;5071;52.360;13.134;2022-08-19T08:34:35;12.93;;;11.15;;
10063;SDS011;5071;52.360;13.134;2022-08-19T08:39:37;13.02;;;11.73;;
10063;SDS011;5071;52.360;13.134;2022-08-19T08:44:43;16.35;;;12.10;;
10063;SDS011;5071;52.360;13.134;2022-08-19T08:49:59;13.15;;;11.82;;
10063;SDS011;5071;52.360;13.134;2022-08-19T08:55:07;12.82;;;11.32;;
10063;SDS011;5071;52.360;13.134;2022-08-19T09:00:15;13.32;;;10.95;;
10063;SDS011;5071;52.360;13.134;2022-08-19T09:05:19;13.85;;;11.63;;
10063;SDS011;5071;52.360;13.134;2022-08-19T09:10:27;12.77;;;11.48;;
10063;SDS011;5071;52.360;13.134;2022-08-19T09:15:36;12.52;;;11.23;;
10063;SDS011;5071;52.360;13.134;2022-08-19T09:20:45;13.73;;;11.23;;
10063;SDS011;5071;52.360;13.134;2022-08-19T09:25:48;14.23;;;12.70;;
10063;SDS011;5071;52.360;13.134;2022-08-19T09:30:52;16.48;;;12.68;;
10063;SDS011;5071;52.360;13.134;2022-08-19T09:36:01;16.40;;;14.45;;
10063;SDS011;5071;52.360;13.134;2022-08-19T09:41:10;16.90;;;13.85;;
10063;SDS011;5071;52.360;13.134;2022-08-19T09:46:17;18.02;;;14.40;;
10063;SDS011;5071;52.360;13.134;2022-08-19T09:51:24;16.83;;;14.65;;
10063;SDS011;5071;52.360;13.134;2022-08-19T09:56:28;17.08;;;14.77;;
10063;SDS011;5071;52.360;13.134;2022-08-19T10:01:35;19.17;;;16.00;;
10063;SDS011;5071;52.360;13.134;2022-08-19T10:06:38;20.35;;;16.42;;
10063;SDS011;5071;52.360;13.134;2022-08-19T10:11:47;20.30;;;17.90;;
10063;SDS011;5071;52.360;13.134;2022-08-19T10:16:56;21.42;;;18.42;;
10063;SDS011;5071;52.360;13.134;2022-08-19T10:22:01;22.25;;;18.40;;
10063;SDS011;5071;52.360;13.134;2022-08-19T10:27:04;24.70;;;18.77;;
10063;SDS011;5071;52.360;13.134;2022-08-19T10:32:10;24.00;;;19.23;;
10063;SDS011;5071;52.360;13.134;2022-08-19T10:37:15;24.95;;;18.02;;
10063;SDS011;5071;52.360;13.134;2022-08-19T10:42:29;23.05;;;17.63;;
10063;SDS011;5071;52.360;13.134;2022-08-19T10:47:33;22.88;;;18.30;;
10063;SDS011;5071;52.360;13.134;2022-08-19T10:52:36;21.77;;;17.92;;
10063;SDS011;5071;52.360;13.134;2022-08-19T10:57:39;23.67;;;17.42;;
10063;SDS011;5071;52.360;13.134;2022-08-19T11:03:02;27.95;;;19.85;;
10063;SDS011;5071;52.360;13.134;2022-08-19T11:08:04;26.05;;;21.23;;
10063;SDS011;5071;52.360;13.134;2022-08-19T11:13:23;25.38;;;19.30;;
10063;SDS011;5071;52.360;13.134;2022-08-19T11:18:27;26.17;;;18.85;;
10063;SDS011;5071;52.360;13.134;2022-08-19T11:23:29;25.38;;;19.60;;
10063;SDS011;5071;52.360;13.134;2022-08-19T11:28:31;28.30;;;21.30;;
10063;SDS011;5071;52.360;13.134;2022-08-19T11:33:34;26.80;;;20.95;;
10063;SDS011;5071;52.360;13.134;2022-08-19T11:38:36;26.27;;;18.73;;
10063;SDS011;5071;52.360;13.134;2022-08-19T11:43:39;24.92;;;18.15;;
10063;SDS011;5071;52.360;13.134;2022-08-19T11:48:42;25.90;;;19.17;;
10063;SDS011;5071;52.360;13.134;2022-08-19T11:53:45;21.35;;;17.45;;
10063;SDS011;5071;52.360;13.134;2022-08-19T11:58:47;22.17;;;17.38;;
10063;SDS011;5071;52.360;13.134;2022-08-19T12:03:52;19.88;;;17.20;;
10063;SDS011;5071;52.360;13.134;2022-08-19T12:08:57;23.70;;;17.45;;
10063;SDS011;5071;52.360;13.134;2022-08-19T12:14:01;24.42;;;17.48;;
10063;SDS011;5071;52.360;13.134;2022-08-19T12:19:05;22.25;;;17.73;;
10063;SDS011;5071;52.360;13.134;2022-08-19T12:24:07;23.55;;;17.35;;
10063;SDS011;5071;52.360;13.134;2022-08-19T12:29:09;21.00;;;15.52;;
10063;SDS011;5071;52.360;13.134;2022-08-19T12:34:12;21.42;;;16.10;;
10063;SDS011;5071;52.360;13.134;2022-08-19T12:39:14;18.30;;;14.60;;
10063;SDS011;5071;52.360;13.134;2022-08-19T12:44:16;18.33;;;14.88;;
10063;SDS011;5071;52.360;13.134;2022-08-19T12:49:21;16.98;;;14.43;;
10063;SDS011;5071;52.360;13.134;2022-08-19T12:54:43;17.15;;;14.35;;
10063;SDS011;5071;52.360;13.134;2022-08-19T12:59:45;19.25;;;14.45;;
10063;SDS011;5071;52.360;13.134;2022-08-19T13:04:49;18.98;;;14.48;;
10063;SDS011;5071;52.360;13.134;2022-08-19T13:09:51;15.60;;;13.40;;
10063;SDS011;5071;52.360;13.134;2022-08-19T13:14:54;14.75;;;11.43;;
10063;SDS011;5071;52.360;13.134;2022-08-19T13:19:57;15.85;;;12.57;;
10063;SDS011;5071;52.360;13.134;2022-08-19T13:24:59;13.07;;;11.48;;
10063;SDS011;5071;52.360;13.134;2022-08-19T13:30:01;15.98;;;12.57;;
10063;SDS011;5071;52.360;13.134;2022-08-19T13:35:06;14.95;;;12.15;;
10063;SDS011;5071;52.360;13.134;2022-08-19T13:40:11;12.18;;;10.65;;
10063;SDS011;5071;52.360;13.134;2022-08-19T13:45:15;13.93;;;10.90;;
10063;SDS011;5071;52.360;13.134;2022-08-19T13:50:22;15.93;;;10.75;;
10063;SDS011;5071;52.360;13.134;2022-08-19T13:55:26;14.30;;;11.20;;
10063;SDS011;5071;52.360;13.134;2022-08-19T14:00:29;14.23;;;11.30;;
10063;SDS011;5071;52.360;13.134;2022-08-19T14:05:35;14.50;;;11.77;;
10063;SDS011;5071;52.360;13.134;2022-08-19T14:10:38;13.50;;;10.05;;
10063;SDS011;5071;52.360;13.134;2022-08-19T14:15:40;13.48;;;11.65;;
10063;SDS011;5071;52.360;13.134;2022-08-19T14:20:44;14.45;;;11.68;;
10063;SDS011;5071;52.360;13.134;2022-08-19T14:25:46;14.45;;;12.10;;
10063;SDS011;5071;52.360;13.134;2022-08-19T14:30:48;15.13;;;10.68;;
10063;SDS011;5071;52.360;13.134;2022-08-19T14:35:56;12.98;;;11.57;;
10063;SDS011;5071;52.360;13.134;2022-08-19T14:41:10;14.43;;;11.32;;
10063;SDS011;5071;52.360;13.134;2022-08-19T14:46:15;13.48;;;10.55;;
10063;SDS011;5071;52.360;13.134;2022-08-19T14:51:23;13.88;;;10.77;;
10063;SDS011;5071;52.360;13.134;2022-08-19T14:56:27;13.02;;;10.65;;
10063;SDS011;5071;52.360;13.134;2022-08-19T15:01:30;10.57;;;9.32;;
10063;SDS011;5071;52.360;13.134;2022-08-19T15:06:33;9.95;;;8.70;;
10063;SDS011;5071;52.360;13.134;2022-08-19T15:11:35;11.18;;;8.18;;
10063;SDS011;5071;52.360;13.134;2022-08-19T15:16:37;10.48;;;9.20;;
10063;SDS011;5071;52.360;13.134;2022-08-19T15:21:40;10.27;;;8.57;;
10063;SDS011;5071;52.360;13.134;2022-08-19T15:26:42;9.82;;;8.57;;
10063;SDS011;5071;52.360;13.134;2022-08-19T15:31:44;10.77;;;9.07;;
10063;SDS011;5071;52.360;13.134;2022-08-19T15:36:50;11.18;;;10.07;;
10063;SDS011;5071;52.360;13.134;2022-08-19T15:41:53;11.07;;;9.73;;
10063;SDS011;5071;52.360;13.134;2022-08-19T15:46:55;13.63;;;11.05;;
10063;SDS011;5071;52.360;13.134;2022-08-19T15:51:59;12.32;;;9.82;;
10063;SDS011;5071;52.360;13.134;2022-08-19T15:57:00;13.60;;;10.88;;
10063;SDS011;5071;52.360;13.134;2022-08-19T16:02:02;13.93;;;11.93;;
10063;SDS011;5071;52.360;13.134;2022-08-19T16:07:06;14.57;;;11.50;;
10063;SDS011;5071;52.360;13.134;2022-08-19T16:12:08;13.18;;;10.93;;
10063;SDS011;5071;52.360;13.134;2022-08-19T16:17:10;13.68;;;10.82;;
10063;SDS011;5071;52.360;13.134;2022-08-19T16:22:15;12.55;;;11.25;;
10063;SDS011;5071;52.360;13.134;2022-08-19T16:27:17;17.65;;;12.88;;
10063;SDS011;5071;52.360;13.134;2022-08-19T16:32:19;15.43;;;12.02;;
10063;SDS011;5071;52.360;13.134;2022-08-19T16:37:23;14.93;;;12.27;;
10063;SDS011;5071;52.360;13.134;2022-08-19T16:42:25;16.08;;;13.00;;
10063;SDS011;5071;52.360;13.134;2022-08-19T16:47:27;18.42;;;13.77;;
10063;SDS011;5071;52.360;13.134;2022-08-19T16:52:30;19.23;;;14.00;;
10063;SDS011;5071;52.360;13.134;2022-08-19T16:57:32;17.60;;;13.43;;
10063;SDS011;5071;52.360;13.134;2022-08-19T17:02:34;19.90;;;14.50;;
10063;SDS011;5071;52.360;13.134;2022-08-19T17:07:38;18.83;;;14.27;;
10063;SDS011;5071;52.360;13.134;2022-08-19T17:12:40;16.30;;;13.25;;
10063;SDS011;5071;52.360;13.134;2022-08-19T17:17:42;19.03;;;13.17;;
10063;SDS011;5071;52.360;13.134;2022-08-19T17:22:45;20.87;;;14.10;;
10063;SDS011;5071;52.360;13.134;2022-08-19T17:27:47;17.17;;;12.93;;
10063;SDS011;5071;52.360;13.134;2022-08-19T17:32:49;17.20;;;13.17;;
10063;SDS011;5071;52.360;13.134;2022-08-19T17:37:53;17.57;;;13.87;;
10063;SDS011;5071;52.360;13.134;2022-08-19T17:42:55;17.45;;;12.98;;
10063;SDS011;5071;52.360;13.134;2022-08-19T17:47:57;14.57;;;11.90;;
10063;SDS011;5071;52.360;13.134;2022-08-19T17:53:00;13.40;;;10.80;;
10063;SDS011;5071;52.360;13.134;2022-08-19T17:58:03;14.87;;;10.37;;
10063;SDS011;5071;52.360;13.134;2022-08-19T18:03:08;11.23;;;9.33;;
10063;SDS011;5071;52.360;13.134;2022-08-19T18:08:14;12.43;;;9.27;;
10063;SDS011;5071;52.360;13.134;2022-08-19T18:13:16;11.37;;;9.83;;
10063;SDS011;5071;52.360;13.134;2022-08-19T18:18:18;14.83;;;11.10;;
10063;SDS011;5071;52.360;13.134;2022-08-19T18:23:22;17.03;;;11.37;;
10063;SDS011;5071;52.360;13.134;2022-08-19T18:28:44;14.37;;;11.57;;
10063;SDS011;5071;52.360;13.134;2022-08-19T18:33:50;16.43;;;11.33;;
10063;SDS011;5071;52.360;13.134;2022-08-19T18:38:53;14.13;;;11.40;;
10063;SDS011;5071;52.360;13.134;2022-08-19T18:43:55;17.50;;;13.17;;
10063;SDS011;5071;52.360;13.134;2022-08-19T18:48:57;16.23;;;11.57;;
10063;SDS011;5071;52.360;13.134;2022-08-19T18:54:00;16.83;;;12.30;;
10063;SDS011;5071;52.360;13.134;2022-08-19T18:59:02;13.13;;;10.87;;
10063;SDS011;5071;52.360;13.134;2022-08-19T19:04:05;15.63;;;12.37;;
10063;SDS011;5071;52.360;13.134;2022-08-19T19:09:12;15.37;;;12.23;;
10063;SDS011;5071;52.360;13.134;2022-08-19T19:14:18;19.20;;;12.53;;
10063;SDS011;5071;52.360;13.134;2022-08-19T19:19:43;16.60;;;13.00;;
10063;SDS011;5071;52.360;13.134;2022-08-19T19:24:46;14.50;;;11.60;;
10063;SDS011;5071;52.360;13.134;2022-08-19T19:29:49;15.63;;;11.50;;
10063;SDS011;5071;52.360;13.134;2022-08-19T19:34:53;15.93;;;11.63;;
10063;SDS011;5071;52.360;13.134;2022-08-19T19:39:56;17.50;;;13.03;;
10063;SDS011;5071;52.360;13.134;2022-08-19T19:44:58;16.30;;;13.23;;
10063;SDS011;5071;52.360;13.134;2022-08-19T19:50:00;19.23;;;13.20;;
10063;SDS011;5071;52.360;13.134;2022-08-19T19:55:17;19.27;;;13.93;;
10063;SDS011;5071;52.360;13.134;2022-08-19T20:00:19;17.07;;;13.03;;
10063;SDS011;5071;52.360;13.134;2022-08-19T20:05:21;23.67;;;15.50;;
10063;SDS011;5071;52.360;13.134;2022-08-19T20:10:25;18.93;;;15.13;;
10063;SDS011;5071;52.360;13.134;2022-08-19T20:15:27;21.10;;;14.97;;
10063;SDS011;5071;52.360;13.134;2022-08-19T20:20:30;19.57;;;13.77;;
10063;SDS011;5071;52.360;13.134;2022-08-19T20:25:33;19.40;;;14.73;;
10063;SDS011;5071;52.360;13.134;2022-08-19T20:30:37;24.77;;;15.90;;
10063;SDS011;5071;52.360;13.134;2022-08-19T20:35:47;19.73;;;15.77;;
10063;SDS011;5071;52.360;13.134;2022-08-19T20:40:50;18.67;;;14.83;;
10063;SDS011;5071;52.360;13.134;2022-08-19T20:45:52;19.77;;;14.80;;
10063;SDS011;5071;52.360;13.134;2022-08-19T20:50:54;17.83;;;14.47;;
10063;SDS011;5071;52.360;13.134;2022-08-19T20:55:58;22.30;;;15.40;;
10063;SDS011;5071;52.360;13.134;2022-08-19T21:01:01;17.43;;;13.67;;
10063;SDS011;5071;52.360;13.134;2022-08-19T21:06:04;19.57;;;14.93;;
10063;SDS011;5071;52.360;13.134;2022-08-19T21:11:08;20.57;;;15.13;;
10063;SDS011;5071;52.360;13.134;2022-08-19T21:16:10;20.67;;;15.53;;
10063;SDS011;5071;52.360;13.134;2022-08-19T21:21:11;18.50;;;14.10;;
10063;SDS011;5071;52.360;13.134;2022-08-19T21:26:15;18.53;;;14.53;;
10063;SDS011;5071;52.360;13.134;2022-08-19T21:31:16;21.27;;;14.73;;
10063;SDS011;5071;52.360;13.134;2022-08-19T21:36:18;19.53;;;13.37;;
10063;SDS011;5071;52.360;13.134;2022-08-19T21:41:21;18.40;;;12.80;;
10063;SDS011;5071;52.360;13.134;2022-08-19T21:46:24;18.03;;;12.67;;
10063;SDS011;5071;52.360;13.134;2022-08-19T21:51:26;18.70;;;13.60;;
10063;SDS011;5071;52.360;13.134;2022-08-19T21:56:48;18.00;;;14.07;;
10063;SDS011;5071;52.360;13.134;2022-08-19T22:01:50;19.73;;;14.80;;
10063;SDS011;5071;52.360;13.134;2022-08-19T22:07:12;22.43;;;14.90;;
10063;SDS011;5071;52.360;13.134;2022-08-19T22:12:20;20.27;;;14.57;;
10063;SDS011;5071;52.360;13.134;2022-08-19T22:17:23;19.37;;;14.57;;
10063;SDS011;5071;52.360;13.134;2022-08-19T22:22:26;20.57;;;13.67;;
10063;SDS011;5071;52.360;13.134;2022-08-19T22:27:32;25.17;;;15.10;;
10063;SDS011;5071;52.360;13.134;2022-08-19T22:32:33;21.70;;;15.80;;
10063;SDS011;5071;52.360;13.134;2022-08-19T22:37:35;23.90;;;16.63;;
10063;SDS011;5071;52.360;13.134;2022-08-19T22:42:39;22.63;;;16.13;;
10063;SDS011;5071;52.360;13.134;2022-08-19T22:47:41;24.03;;;16.47;;
10063;SDS011;5071;52.360;13.134;2022-08-19T22:52:43;22.17;;;15.27;;
10063;SDS011;5071;52.360;13.134;2022-08-19T22:57:54;23.23;;;16.13;;
10063;SDS011;5071;52.360;13.134;2022-08-19T23:02:57;24.97;;;15.17;;
10063;SDS011;5071;52.360;13.134;2022-08-19T23:07:59;26.17;;;16.80;;
10063;SDS011;5071;52.360;13.134;2022-08-19T23:13:02;23.90;;;16.03;;
10063;SDS011;5071;52.360;13.134;2022-08-19T23:18:04;20.17;;;14.80;;
10063;SDS011;5071;52.360;13.134;2022-08-19T23:23:07;23.70;;;14.97;;
10063;SDS011;5071;52.360;13.134;2022-08-19T23:28:12;18.83;;;14.03;;
10063;SDS011;5071;52.360;13.134;2022-08-19T23:33:15;20.73;;;14.17;;
10063;SDS011;5071;52.360;13.134;2022-08-19T23:38:17;21.10;;;14.57;;
10063;SDS011;5071;52.360;13.134;2022-08-19T23:43:21;23.67;;;15.20;;
10063;SDS011;5071;52.360;13.134;2022-08-19T23:48:25;18.43;;;13.13;;
10063;SDS011;5071;52.360;13.134;2022-08-19T23:53:28;17.10;;;12.43;;
10063;SDS011;5071;52.360;13.134;2022-08-19T23:58:32;16.30;;;12.73;;
